Time;durP1;ratioP1;P1;durP2;ratioP2;P2;SDS_P1;SDS_P2;PMS_P1;PMS_P2;Temp;Humidity;BMP_temperature;BMP_pressure;BME280_temperature;BME280_humidity;BME280_pressure;Samples;Min_cycle;Max_cycle;Signal;HPM_P1;HPM_P2
2022/03/30 00:00:38;;;;;;;14.10;7.00;;;;;9.40;96530.20;;;;111103;1248;41264;-62
2022/03/30 00:03:08;;;;;;;15.20;7.60;;;;;9.40;96531.00;;;;111117;1247;41195;-60
2022/03/30 00:05:38;;;;;;;14.70;7.40;;;;;9.30;96531.80;;;;111128;1248;41812;-63
2022/03/30 00:08:09;;;;;;;13.10;6.80;;;;;9.30;96524.80;;;;111014;1249;41140;-63
2022/03/30 00:10:39;;;;;;;14.00;7.20;;;;;9.30;96527.20;;;;111072;1247;41134;-64
2022/03/30 00:13:08;;;;;;;15.70;7.50;;;;;9.22;96523.80;;;;110843;1251;41157;-64
2022/03/30 00:15:39;;;;;;;13.90;6.90;;;;;9.20;96523.00;;;;110734;1248;41637;-64
2022/03/30 00:18:08;;;;;;;17.50;8.80;;;;;9.20;96522.00;;;;111145;1248;41603;-64
2022/03/30 00:20:38;;;;;;;18.30;8.50;;;;;9.20;96520.00;;;;111052;1248;41601;-64
2022/03/30 00:23:08;;;;;;;20.40;8.90;;;;;9.20;96523.80;;;;111056;1248;41255;-61
2022/03/30 00:25:39;;;;;;;15.90;7.50;;;;;9.10;96523.40;;;;111027;1248;42372;-63
2022/03/30 00:28:09;;;;;;;16.70;7.30;;;;;9.10;96521.60;;;;111073;1250;41285;-62
2022/03/30 00:30:39;;;;;;;14.80;7.20;;;;;9.10;96518.00;;;;110932;1249;41569;-63
2022/03/30 00:33:10;;;;;;;16.30;7.20;;;;;9.00;96515.20;;;;111070;1248;41365;-62
2022/03/30 00:35:40;;;;;;;13.50;6.90;;;;;9.00;96512.20;;;;111114;1246;41251;-63
2022/03/30 00:38:10;;;;;;;13.90;6.70;;;;;9.00;96513.40;;;;111117;1248;42526;-64
2022/03/30 00:40:41;;;;;;;14.60;7.00;;;;;8.92;96513.60;;;;111075;1248;41123;-65
2022/03/30 00:43:12;;;;;;;13.00;7.10;;;;;8.90;96509.20;;;;111093;1248;41874;-63
2022/03/30 00:45:41;;;;;;;14.70;6.50;;;;;8.88;96511.40;;;;110978;1250;41161;-64
2022/03/30 00:48:12;;;;;;;19.20;7.90;;;;;8.80;96506.40;;;;111170;1248;41260;-64
2022/03/30 00:50:42;;;;;;;16.90;8.40;;;;;8.80;96510.20;;;;111146;1248;41145;-63
2022/03/30 00:53:12;;;;;;;18.10;7.20;;;;;8.80;96507.80;;;;110896;1250;41177;-64
2022/03/30 00:55:42;;;;;;;18.50;9.10;;;;;8.78;96504.60;;;;111037;1248;41170;-65
2022/03/30 00:58:12;;;;;;;18.20;8.80;;;;;8.74;96504.40;;;;111035;1248;42302;-63
2022/03/30 01:00:42;;;;;;;20.80;10.60;;;;;8.70;96497.20;;;;111008;1248;41153;-64
2022/03/30 01:03:13;;;;;;;18.40;9.10;;;;;8.70;96497.40;;;;110683;1250;41267;-63
2022/03/30 01:05:45;;;;;;;22.00;10.20;;;;;8.60;96500.00;;;;111089;1248;42491;-62
2022/03/30 01:08:16;;;;;;;18.50;9.20;;;;;8.50;96499.40;;;;111123;1248;42076;-64
2022/03/30 01:10:47;;;;;;;19.00;9.50;;;;;8.50;96499.00;;;;110798;1247;41827;-62
2022/03/30 01:13:18;;;;;;;18.60;9.80;;;;;8.40;96499.20;;;;111076;1246;42563;-63
2022/03/30 01:15:49;;;;;;;18.30;9.00;;;;;8.30;96497.40;;;;111029;1249;41957;-64
2022/03/30 01:18:21;;;;;;;17.90;8.80;;;;;8.30;96502.00;;;;111109;1248;41253;-64
2022/03/30 01:20:51;;;;;;;19.10;9.50;;;;;8.24;96496.60;;;;111060;1247;41608;-61
2022/03/30 01:23:22;;;;;;;;;;;;;8.20;96497.00;;;;111069;1249;41847;-62
2022/03/30 01:25:52;;;;;;;18.00;8.10;;;;;8.20;96496.00;;;;111025;1248;41720;-63
2022/03/30 01:28:28;;;;;;;18.60;8.60;;;;;8.20;96495.80;;;;111095;1247;41156;-62
2022/03/30 01:33:48;;;;;;;15.00;7.20;;;;;8.16;96497.80;;;;111120;1249;41134;-64
2022/03/30 01:36:18;;;;;;;16.40;8.30;;;;;8.10;96496.60;;;;111155;1248;42772;-62
2022/03/30 01:38:49;;;;;;;17.90;8.50;;;;;8.10;96492.80;;;;111046;1250;41130;-64
2022/03/30 01:41:19;;;;;;;18.30;8.80;;;;;8.10;96493.60;;;;111091;1247;41905;-62
2022/03/30 01:43:50;;;;;;;19.70;8.70;;;;;8.10;96495.40;;;;110882;1251;41266;-65
2022/03/30 01:46:20;;;;;;;17.50;7.60;;;;;8.10;96493.00;;;;110910;1249;41145;-63
2022/03/30 01:48:51;;;;;;;17.00;8.40;;;;;8.10;96490.00;;;;111076;1247;41593;-62
2022/03/30 01:51:21;;;;;;;17.50;8.30;;;;;8.10;96491.40;;;;111058;1247;41147;-63
2022/03/30 01:53:51;;;;;;;21.10;9.00;;;;;8.00;96488.80;;;;111096;1247;41276;-63
2022/03/30 01:56:21;;;;;;;19.40;10.20;;;;;8.00;96488.80;;;;111138;1247;41630;-63
2022/03/30 01:58:52;;;;;;;;;;;;;8.00;96489.20;;;;111142;1247;41305;-62
2022/03/30 02:01:22;;;;;;;21.70;10.50;;;;;7.90;96490.80;;;;111095;1249;41593;-63
2022/03/30 02:03:53;;;;;;;22.60;10.90;;;;;7.88;96482.80;;;;111056;1248;41817;-63
2022/03/30 02:06:24;;;;;;;21.10;10.20;;;;;7.80;96489.20;;;;111127;1247;41132;-62
2022/03/30 02:08:54;;;;;;;17.00;8.10;;;;;7.74;96492.60;;;;111002;1248;42479;-64
2022/03/30 02:11:26;;;;;;;18.40;9.00;;;;;7.70;96495.80;;;;111064;1248;41276;-63
2022/03/30 02:13:57;;;;;;;15.10;7.30;;;;;7.64;96495.20;;;;111121;1248;41544;-63
2022/03/30 02:16:28;;;;;;;19.10;8.80;;;;;7.60;96494.00;;;;111064;1248;41192;-62
2022/03/30 02:18:59;;;;;;;19.90;10.60;;;;;7.60;96493.80;;;;111001;1250;41248;-63
2022/03/30 02:21:29;;;;;;;19.10;9.30;;;;;7.50;96497.40;;;;111145;1247;41154;-64
2022/03/30 02:23:59;;;;;;;20.40;8.80;;;;;7.50;96496.20;;;;110956;1249;41667;-62
2022/03/30 02:26:30;;;;;;;25.60;11.10;;;;;7.44;96495.20;;;;111214;1247;41139;-64
2022/03/30 02:29:00;;;;;;;22.90;11.30;;;;;7.40;96494.00;;;;111109;1247;41348;-62
2022/03/30 02:31:31;;;;;;;21.00;10.40;;;;;7.38;96487.60;;;;111104;1247;41267;-62
2022/03/30 02:34:00;;;;;;;16.40;8.80;;;;;7.30;96487.40;;;;111291;1247;41658;-62
2022/03/30 02:36:31;;;;;;;16.20;8.50;;;;;7.20;96491.00;;;;111034;1247;41229;-63
2022/03/30 02:39:02;;;;;;;18.10;9.20;;;;;7.20;96490.80;;;;111095;1248;41810;-64
2022/03/30 02:41:32;;;;;;;27.10;12.80;;;;;7.10;96497.20;;;;111162;1247;41248;-62
2022/03/30 02:44:02;;;;;;;20.60;10.00;;;;;7.00;96497.20;;;;111314;1247;41366;-63
2022/03/30 02:46:32;;;;;;;21.40;9.50;;;;;6.90;96496.40;;;;111136;1247;42037;-62
2022/03/30 02:49:03;;;;;;;18.20;8.70;;;;;6.86;96498.20;;;;110897;1249;41547;-63
2022/03/30 02:51:33;;;;;;;22.50;11.10;;;;;6.80;96497.20;;;;111110;1248;41709;-62
2022/03/30 02:54:03;;;;;;;20.60;10.50;;;;;6.80;96495.60;;;;111115;1248;41121;-64
2022/03/30 02:56:34;;;;;;;21.90;10.20;;;;;6.80;96495.60;;;;111065;1248;40772;-66
2022/03/30 02:59:04;;;;;;;19.90;9.20;;;;;6.70;96491.60;;;;111185;1247;41157;-63
2022/03/30 03:01:35;;;;;;;21.90;11.50;;;;;6.62;96499.40;;;;111062;1249;41777;-61
2022/03/30 03:04:05;;;;;;;25.10;12.50;;;;;6.60;96496.80;;;;111065;1247;41162;-62
2022/03/30 03:06:36;;;;;;;28.20;14.00;;;;;6.52;96496.80;;;;111028;1247;41964;-63
2022/03/30 03:09:08;;;;;;;24.60;12.90;;;;;6.50;96502.60;;;;111232;1247;41760;-64
2022/03/30 03:11:37;;;;;;;23.80;11.90;;;;;6.48;96498.80;;;;111132;1249;41143;-64
2022/03/30 03:14:09;;;;;;;21.20;10.70;;;;;6.40;96504.20;;;;111049;1248;41146;-63
2022/03/30 03:16:38;;;;;;;20.80;10.40;;;;;6.38;96498.40;;;;111159;1247;41501;-60
2022/03/30 03:19:08;;;;;;;20.00;10.10;;;;;6.30;96499.40;;;;111112;1248;41490;-64
2022/03/30 03:21:38;;;;;;;19.80;9.20;;;;;6.30;96501.60;;;;111108;1248;41255;-64
2022/03/30 03:24:08;;;;;;;18.90;9.10;;;;;6.20;96500.40;;;;111113;1248;41121;-62
2022/03/30 03:26:38;;;;;;;20.00;9.30;;;;;6.20;96497.00;;;;111054;1248;42394;-63
2022/03/30 03:29:08;;;;;;;20.10;9.50;;;;;6.20;96499.40;;;;111126;1248;41707;-63
2022/03/30 03:31:38;;;;;;;16.50;8.60;;;;;6.20;96497.80;;;;110842;1250;42255;-64
2022/03/30 03:34:08;;;;;;;18.60;9.20;;;;;6.20;96502.20;;;;111063;1247;41272;-62
2022/03/30 03:36:37;;;;;;;18.60;8.80;;;;;6.20;96502.40;;;;111077;1248;41159;-63
2022/03/30 03:39:07;;;;;;;18.80;8.60;;;;;6.20;96503.80;;;;111045;1248;41144;-64
2022/03/30 03:41:37;;;;;;;17.50;9.10;;;;;6.20;96499.80;;;;111253;1247;42102;-62
2022/03/30 03:44:06;;;;;;;18.50;9.30;;;;;6.18;96498.60;;;;111015;1248;41214;-63
2022/03/30 03:46:36;;;;;;;20.80;9.60;;;;;6.18;96505.00;;;;110978;1248;41664;-62
2022/03/30 03:49:08;;;;;;;18.90;10.00;;;;;6.10;96498.00;;;;110991;1250;41157;-62
2022/03/30 03:51:37;;;;;;;;;;;;;6.10;96497.00;;;;111060;1248;41153;-62
2022/03/30 03:54:06;;;;;;;19.90;9.50;;;;;6.00;96500.00;;;;111030;1249;41251;-62
2022/03/30 03:56:36;;;;;;;22.20;11.20;;;;;6.00;96496.00;;;;111104;1247;42829;-63
2022/03/30 03:59:05;;;;;;;20.20;10.20;;;;;6.00;96503.80;;;;111084;1247;41153;-63
2022/03/30 04:01:35;;;;;;;20.40;10.00;;;;;6.00;96505.00;;;;111074;1248;41256;-63
2022/03/30 04:04:05;;;;;;;20.60;10.30;;;;;5.96;96503.20;;;;111182;1247;41256;-64
2022/03/30 04:06:35;;;;;;;20.80;9.80;;;;;5.90;96501.80;;;;111034;1247;42420;-63
2022/03/30 04:09:06;;;;;;;22.00;10.30;;;;;5.90;96507.20;;;;110991;1248;41451;-62
2022/03/30 04:11:37;;;;;;;21.70;9.80;;;;;5.90;96506.20;;;;111206;1247;41720;-60
2022/03/30 04:14:08;;;;;;;20.90;10.10;;;;;5.86;96511.60;;;;111037;1247;42429;-62
2022/03/30 04:16:37;;;;;;;26.00;12.30;;;;;5.80;96515.60;;;;111085;1248;42750;-62
2022/03/30 04:19:06;;;;;;;19.20;10.40;;;;;5.80;96515.80;;;;111074;1247;41309;-63
2022/03/30 04:21:36;;;;;;;20.50;9.20;;;;;5.80;96512.80;;;;111098;1247;41608;-62
2022/03/30 04:24:06;;;;;;;19.60;10.00;;;;;5.80;96516.80;;;;111121;1247;41157;-63
2022/03/30 04:26:36;;;;;;;22.60;10.20;;;;;5.80;96516.40;;;;111160;1245;41557;-63
2022/03/30 04:29:06;;;;;;;22.90;11.10;;;;;5.80;96519.40;;;;111226;1245;41754;-63
2022/03/30 04:31:35;;;;;;;25.30;11.40;;;;;5.80;96518.00;;;;111100;1247;41713;-64
2022/03/30 04:34:05;;;;;;;20.40;10.40;;;;;5.80;96516.40;;;;111091;1247;41827;-63
2022/03/30 04:36:34;;;;;;;21.50;10.30;;;;;5.80;96517.00;;;;111056;1248;41163;-65
2022/03/30 04:39:03;;;;;;;22.30;11.10;;;;;5.80;96527.80;;;;110995;1248;41379;-62
2022/03/30 04:41:33;;;;;;;27.50;11.40;;;;;5.80;96527.60;;;;111102;1247;41150;-63
2022/03/30 04:44:02;;;;;;;26.60;10.90;;;;;5.70;96527.80;;;;111124;1247;41262;-63
2022/03/30 04:46:31;;;;;;;19.10;9.70;;;;;5.70;96525.80;;;;111076;1247;41172;-63
2022/03/30 04:49:01;;;;;;;19.80;9.60;;;;;5.72;96529.00;;;;111092;1246;41177;-63
2022/03/30 04:51:31;;;;;;;19.30;9.40;;;;;5.78;96528.60;;;;111079;1248;41147;-62
2022/03/30 04:54:01;;;;;;;20.10;9.70;;;;;5.80;96526.60;;;;111218;1247;41246;-62
2022/03/30 04:56:30;;;;;;;22.80;11.40;;;;;5.86;96524.60;;;;111045;1247;41151;-62
2022/03/30 04:58:59;;;;;;;21.90;10.10;;;;;5.90;96524.80;;;;111122;1247;41291;-60
2022/03/30 05:01:29;;;;;;;18.40;9.50;;;;;5.96;96526.40;;;;110813;1248;41578;-62
2022/03/30 05:03:58;;;;;;;20.50;10.20;;;;;6.00;96529.60;;;;111112;1247;41169;-64
2022/03/30 05:06:28;;;;;;;19.90;10.40;;;;;6.10;96532.40;;;;111013;1248;41264;-64
2022/03/30 05:08:57;;;;;;;20.60;10.70;;;;;6.20;96535.00;;;;111116;1247;41149;-64
2022/03/30 05:11:27;;;;;;;21.20;10.70;;;;;6.30;96529.00;;;;111120;1248;41153;-61
2022/03/30 05:13:57;;;;;;;27.20;14.10;;;;;6.40;96529.80;;;;110936;1248;41268;-62
2022/03/30 05:16:28;;;;;;;29.60;15.60;;;;;6.48;96528.00;;;;111008;1245;41250;-62
2022/03/30 05:18:57;;;;;;;24.20;13.10;;;;;6.54;96531.80;;;;111112;1247;41324;-61
2022/03/30 05:21:27;;;;;;;26.40;11.50;;;;;6.60;96525.60;;;;111129;1247;41396;-61
2022/03/30 05:23:56;;;;;;;20.50;11.00;;;;;6.76;96526.20;;;;111117;1247;41140;-62
2022/03/30 05:26:26;;;;;;;26.40;12.10;;;;;6.94;96530.80;;;;110935;1247;41266;-63
2022/03/30 05:28:55;;;;;;;27.40;13.50;;;;;7.10;96529.00;;;;110986;1248;41147;-62
2022/03/30 05:31:24;;;;;;;44.20;18.30;;;;;7.36;96522.60;;;;110829;1250;41277;-63
2022/03/30 05:33:54;;;;;;;47.70;22.90;;;;;7.54;96518.60;;;;110834;1248;41162;-64
2022/03/30 05:36:23;;;;;;;42.20;21.60;;;;;7.74;96523.40;;;;110832;1250;41617;-63
2022/03/30 05:38:53;;;;;;;48.90;20.20;;;;;7.90;96511.80;;;;111065;1250;41427;-63
2022/03/30 05:41:22;;;;;;;34.50;17.20;;;;;8.00;96515.20;;;;111294;1247;41257;-65
2022/03/30 05:43:53;;;;;;;30.90;15.00;;;;;8.18;96510.60;;;;111072;1247;42077;-64
2022/03/30 05:46:22;;;;;;;34.20;15.50;;;;;8.34;96505.60;;;;111086;1247;42194;-63
2022/03/30 05:48:53;;;;;;;31.60;15.60;;;;;8.56;96509.00;;;;111093;1248;41297;-63
2022/03/30 05:51:22;;;;;;;31.00;15.30;;;;;8.76;96504.20;;;;111036;1248;41894;-62
2022/03/30 05:53:52;;;;;;;27.40;15.00;;;;;9.00;96504.20;;;;110817;1250;41115;-63
2022/03/30 05:57:00;;;;;;;30.70;14.80;;;;;9.30;96507.20;;;;111051;1248;41251;-62
2022/03/30 05:59:12;;;;;;;26.60;12.80;;;;;9.60;96501.60;;;;111005;1248;41163;-62
2022/03/30 06:01:42;;;;;;;25.60;12.80;;;;;9.92;96499.40;;;;111046;1248;41476;-63
2022/03/30 06:04:11;;;;;;;30.10;14.10;;;;;10.18;96500.20;;;;111101;1247;41166;-64
2022/03/30 06:06:41;;;;;;;25.80;13.10;;;;;10.36;96499.60;;;;110840;1248;41915;-64
2022/03/30 06:09:11;;;;;;;26.40;13.30;;;;;10.50;96506.20;;;;111082;1247;41173;-64
2022/03/30 06:11:40;;;;;;;30.80;12.30;;;;;10.60;96503.80;;;;110967;1250;41243;-63
2022/03/30 06:14:10;;;;;;;30.40;14.40;;;;;10.76;96505.80;;;;111079;1248;41145;-63
2022/03/30 06:16:43;;;;;;;23.20;12.40;;;;;10.90;96503.80;;;;111129;1248;42454;-65
2022/03/30 06:19:13;;;;;;;23.80;12.50;;;;;11.00;96505.00;;;;111067;1248;42072;-65
2022/03/30 06:21:42;;;;;;;25.70;13.60;;;;;11.10;96500.60;;;;111019;1250;41296;-63
2022/03/30 06:24:13;;;;;;;31.10;14.20;;;;;11.28;96496.00;;;;111012;1247;41154;-63
2022/03/30 06:26:43;;;;;;;25.80;13.90;;;;;11.40;96493.80;;;;111076;1247;41151;-63
2022/03/30 06:29:13;;;;;;;30.40;15.20;;;;;11.60;96497.80;;;;111065;1247;41534;-64
2022/03/30 06:31:43;;;;;;;27.90;14.90;;;;;11.80;96501.20;;;;111107;1247;41557;-63
2022/03/30 06:34:12;;;;;;;27.70;14.50;;;;;12.10;96496.20;;;;111120;1247;41144;-63
2022/03/30 06:36:42;;;;;;;26.40;14.80;;;;;12.40;96500.00;;;;111383;1245;41251;-63
2022/03/30 06:39:11;;;;;;;26.10;14.20;;;;;12.64;96497.80;;;;111071;1248;41257;-64
2022/03/30 06:41:42;;;;;;;32.90;15.60;;;;;12.90;96499.40;;;;111115;1247;41155;-64
2022/03/30 06:44:12;;;;;;;26.30;13.70;;;;;13.18;96500.60;;;;111074;1247;42368;-65
2022/03/30 06:46:41;;;;;;;30.10;13.60;;;;;13.40;96501.20;;;;111115;1247;41148;-66
2022/03/30 06:49:11;;;;;;;30.60;16.50;;;;;13.70;96502.80;;;;111220;1247;41392;-65
2022/03/30 06:51:41;;;;;;;29.10;15.00;;;;;13.88;96500.80;;;;110989;1248;41155;-65
2022/03/30 06:54:10;;;;;;;26.60;13.70;;;;;14.10;96500.80;;;;111151;1248;41667;-64
2022/03/30 06:56:40;;;;;;;26.30;14.10;;;;;14.30;96512.00;;;;111109;1247;41155;-63
2022/03/30 06:59:13;;;;;;;25.80;14.20;;;;;14.42;96507.20;;;;111060;1248;41265;-63
2022/03/30 07:01:42;;;;;;;27.00;14.50;;;;;14.52;96505.00;;;;111143;1247;41378;-62
2022/03/30 07:04:12;;;;;;;28.90;14.50;;;;;14.60;96500.80;;;;111048;1247;41269;-65
2022/03/30 07:10:15;;;;;;;28.60;14.50;;;;;14.72;96505.80;;;;111047;1248;41162;-64
2022/03/30 07:12:20;;;;;;;27.50;12.80;;;;;15.10;96506.20;;;;110901;1248;41378;-62
2022/03/30 07:14:50;;;;;;;27.00;14.20;;;;;15.20;96504.20;;;;111123;1247;41253;-63
2022/03/30 07:17:19;;;;;;;24.10;13.50;;;;;15.40;96502.60;;;;111059;1247;41697;-63
2022/03/30 07:19:49;;;;;;;32.30;14.50;;;;;15.50;96502.40;;;;110852;1248;41274;-63
2022/03/30 07:22:19;;;;;;;25.00;14.40;;;;;15.60;96501.00;;;;111190;1247;41139;-63
2022/03/30 07:24:49;;;;;;;25.90;13.20;;;;;15.72;96500.20;;;;111048;1247;41265;-63
2022/03/30 07:27:19;;;;;;;26.90;13.30;;;;;15.90;96499.80;;;;111052;1247;41145;-63
2022/03/30 07:29:49;;;;;;;25.90;13.80;;;;;16.02;96501.80;;;;111198;1247;42368;-63
2022/03/30 07:32:19;;;;;;;27.00;14.10;;;;;16.18;96505.40;;;;110534;1248;621015;-65
2022/03/30 07:34:49;;;;;;;27.60;13.40;;;;;16.20;96501.00;;;;111133;1247;41321;-64
2022/03/30 07:37:18;;;;;;;23.50;12.40;;;;;16.30;96495.00;;;;111129;1247;41136;-63
2022/03/30 07:39:48;;;;;;;25.50;12.60;;;;;16.50;96496.60;;;;111110;1247;41147;-62
2022/03/30 07:42:17;;;;;;;20.70;11.80;;;;;16.64;96494.40;;;;111002;1249;41273;-65
2022/03/30 07:44:48;;;;;;;24.90;14.30;;;;;16.76;96492.60;;;;111071;1248;41259;-62
2022/03/30 07:47:18;;;;;;;23.80;12.40;;;;;16.90;96495.60;;;;111015;1248;42382;-66
2022/03/30 07:49:48;;;;;;;24.50;14.30;;;;;16.92;96494.60;;;;111039;1248;41170;-63
2022/03/30 07:52:20;;;;;;;29.30;13.60;;;;;17.10;96497.60;;;;111004;1248;41276;-65
2022/03/30 07:54:50;;;;;;;27.50;12.80;;;;;17.20;96491.60;;;;111153;1247;41256;-64
2022/03/30 07:57:26;;;;;;;21.20;12.70;;;;;17.40;96493.40;;;;111057;1247;41155;-63
2022/03/30 07:59:58;;;;;;;25.80;13.20;;;;;17.38;96495.00;;;;111080;1249;41642;-63
2022/03/30 08:02:27;;;;;;;24.40;12.30;;;;;17.50;96504.60;;;;111050;1247;41156;-63
2022/03/30 08:04:57;;;;;;;21.80;11.80;;;;;17.60;96496.80;;;;111042;1247;41858;-63
2022/03/30 08:07:30;;;;;;;21.10;12.10;;;;;17.80;96497.00;;;;111055;1248;42156;-63
2022/03/30 08:10:00;;;;;;;28.50;13.00;;;;;17.90;96499.80;;;;111151;1247;41159;-64
2022/03/30 08:12:29;;;;;;;21.70;12.20;;;;;17.90;96498.20;;;;111101;1249;41318;-65
2022/03/30 08:14:59;;;;;;;25.80;10.90;;;;;18.00;96495.00;;;;111021;1248;41376;-63
2022/03/30 08:17:29;;;;;;;24.20;12.00;;;;;18.04;96489.20;;;;111088;1247;41152;-63
2022/03/30 08:19:59;;;;;;;30.70;14.30;;;;;18.16;96483.80;;;;111074;1248;41137;-65
2022/03/30 08:22:29;;;;;;;25.10;12.80;;;;;18.34;96475.60;;;;110797;1250;42205;-62
2022/03/30 08:25:07;;;;;;;24.50;12.90;;;;;18.64;96480.80;;;;110976;1247;41217;-64
2022/03/30 08:27:37;;;;;;;32.10;14.50;;;;;18.64;96475.80;;;;111142;1247;41270;-62
2022/03/30 08:30:07;;;;;;;29.10;14.20;;;;;18.80;96476.40;;;;111003;1247;41688;-63
2022/03/30 08:32:37;;;;;;;;;;;;;19.00;96474.60;;;;110842;1247;41408;-66
2022/03/30 08:35:10;;;;;;;25.10;10.50;;;;;18.98;96476.20;;;;111038;1247;41150;-63
2022/03/30 08:37:40;;;;;;;21.00;10.20;;;;;19.10;96481.40;;;;110887;1247;41166;-62
2022/03/30 08:40:10;;;;;;;19.10;10.00;;;;;18.98;96463.20;;;;111127;1246;41244;-63
2022/03/30 08:42:41;;;;;;;20.00;10.20;;;;;18.96;96459.20;;;;111005;1247;41506;-62
2022/03/30 08:45:10;;;;;;;21.50;10.40;;;;;19.08;96458.00;;;;111084;1247;41449;-62
2022/03/30 08:47:40;;;;;;;19.80;11.10;;;;;19.14;96472.40;;;;110998;1250;41163;-62
2022/03/30 08:50:10;;;;;;;19.90;9.80;;;;;19.20;96462.00;;;;110950;1248;41143;-66
2022/03/30 08:52:41;;;;;;;20.00;9.40;;;;;19.10;96459.80;;;;110877;1247;41210;-65
2022/03/30 08:55:11;;;;;;;16.70;9.50;;;;;19.14;96458.00;;;;111011;1247;41505;-65
2022/03/30 08:57:40;;;;;;;23.40;10.40;;;;;19.30;96452.40;;;;110772;1250;41423;-67
2022/03/30 09:00:19;;;;;;;18.40;9.80;;;;;19.54;96457.60;;;;110906;1249;41153;-63
2022/03/30 09:03:00;;;;;;;15.30;7.90;;;;;19.50;96459.40;;;;111064;1247;41801;-67
2022/03/30 09:05:37;;;;;;;21.50;9.30;;;;;19.58;96461.40;;;;110722;1250;41257;-65
2022/03/30 09:08:13;;;;;;;17.90;8.30;;;;;19.52;96458.00;;;;110975;1250;42747;-66
2022/03/30 09:10:45;;;;;;;16.10;9.10;;;;;19.76;96442.80;;;;110989;1248;41155;-65
2022/03/30 09:13:17;;;;;;;18.30;8.80;;;;;19.90;96446.00;;;;111137;1247;41242;-68
2022/03/30 09:15:48;;;;;;;21.50;8.30;;;;;20.16;96440.00;;;;111063;1247;41175;-66
2022/03/30 09:18:18;;;;;;;16.60;8.60;;;;;20.30;96443.20;;;;111117;1247;41140;-62
2022/03/30 09:20:51;;;;;;;15.90;8.80;;;;;20.36;96437.00;;;;111094;1247;41497;-62
2022/03/30 09:23:26;;;;;;;18.50;8.70;;;;;20.68;96426.80;;;;110991;1248;41138;-61
2022/03/30 09:25:57;;;;;;;17.50;8.60;;;;;21.26;96431.20;;;;111052;1247;41183;-64
2022/03/30 09:28:27;;;;;;;22.40;9.90;;;;;22.18;96423.20;;;;110815;1248;41950;-64
2022/03/30 09:30:57;;;;;;;17.10;8.90;;;;;22.52;96402.80;;;;111060;1247;41200;-63
2022/03/30 09:33:27;;;;;;;18.20;8.70;;;;;23.32;96405.40;;;;111059;1247;41199;-62
2022/03/30 09:35:56;;;;;;;21.10;9.50;;;;;23.34;96394.80;;;;110963;1247;41216;-64
2022/03/30 09:38:29;;;;;;;15.80;9.20;;;;;23.84;96395.60;;;;110973;1248;41247;-63
2022/03/30 09:41:03;;;;;;;17.00;8.50;;;;;24.16;96397.60;;;;111033;1248;41242;-62
2022/03/30 09:43:34;;;;;;;21.00;9.70;;;;;24.28;96401.40;;;;111140;1247;41121;-63
2022/03/30 09:46:08;;;;;;;15.30;8.60;;;;;24.24;96400.40;;;;111044;1247;41381;-64
2022/03/30 09:48:40;;;;;;;14.60;8.40;;;;;23.96;96399.20;;;;111088;1246;41771;-62
2022/03/30 09:51:10;;;;;;;19.70;8.80;;;;;23.72;96396.20;;;;110850;1248;41878;-63
2022/03/30 09:53:39;;;;;;;15.50;7.90;;;;;23.70;96395.60;;;;111162;1247;41150;-63
2022/03/30 09:56:23;;;;;;;17.30;8.70;;;;;23.80;96390.40;;;;110751;1247;41949;-63
2022/03/30 09:59:05;;;;;;;15.90;8.60;;;;;23.94;96384.80;;;;111078;1247;42475;-65
2022/03/30 10:01:34;;;;;;;19.20;8.50;;;;;24.04;96395.40;;;;111133;1247;42525;-62
2022/03/30 10:04:08;;;;;;;23.20;7.90;;;;;24.08;96395.80;;;;110983;1250;41130;-63
2022/03/30 10:06:40;;;;;;;17.00;8.80;;;;;24.16;96401.40;;;;111119;1247;42378;-63
2022/03/30 10:09:16;;;;;;;16.20;8.00;;;;;23.92;96402.00;;;;111096;1247;41520;-62
2022/03/30 10:11:45;;;;;;;18.10;8.40;;;;;23.62;96395.60;;;;110905;1247;42000;-61
2022/03/30 10:14:15;;;;;;;18.20;8.30;;;;;23.54;96382.60;;;;111081;1247;41261;-69
2022/03/30 10:16:45;;;;;;;22.60;9.40;;;;;24.22;96379.80;;;;111036;1248;41154;-66
2022/03/30 10:19:16;;;;;;;;;;;;;24.54;96389.20;;;;111142;1247;41139;-65
2022/03/30 10:22:06;;;;;;;15.60;8.90;;;;;24.46;96390.80;;;;110927;1249;41145;-66
2022/03/30 10:25:02;;;;;;;18.00;9.60;;;;;24.20;96382.60;;;;111132;1246;41263;-66
2022/03/30 10:27:43;;;;;;;17.30;8.40;;;;;24.04;96389.20;;;;111124;1247;41631;-62
2022/03/30 10:30:13;;;;;;;21.90;9.10;;;;;23.98;96393.00;;;;111021;1249;41264;-63
2022/03/30 10:32:42;;;;;;;18.50;9.80;;;;;23.50;96386.80;;;;111068;1249;41262;-65
2022/03/30 10:35:13;;;;;;;19.10;9.50;;;;;22.74;96397.80;;;;111104;1247;41147;-62
2022/03/30 10:37:59;;;;;;;17.50;9.00;;;;;23.24;96388.40;;;;111096;1247;41596;-66
2022/03/30 10:40:29;;;;;;;19.90;8.50;;;;;23.24;96377.40;;;;111125;1247;41250;-61
2022/03/30 10:43:01;;;;;;;19.60;9.20;;;;;23.92;96386.80;;;;111127;1246;41304;-62
2022/03/30 10:46:09;;;;;;;18.20;8.40;;;;;24.02;96381.40;;;;110863;1248;42999;-64
2022/03/30 10:48:39;;;;;;;17.50;8.90;;;;;25.00;96375.60;;;;110998;1247;41155;-63
2022/03/30 10:51:09;;;;;;;20.40;9.50;;;;;24.54;96364.80;;;;111074;1247;41261;-61
2022/03/30 10:53:43;;;;;;;19.70;10.00;;;;;25.10;96365.20;;;;111064;1248;41631;-62
2022/03/30 10:56:15;;;;;;;17.60;9.20;;;;;25.70;96365.60;;;;111003;1247;41517;-63
2022/03/30 10:58:58;;;;;;;20.30;9.80;;;;;25.42;96366.20;;;;111123;1247;41148;-63
2022/03/30 11:01:33;;;;;;;17.80;9.90;;;;;25.20;96361.80;;;;111168;1247;41511;-63
2022/03/30 11:04:18;;;;;;;18.70;9.80;;;;;24.44;96356.60;;;;111067;1247;41804;-63
2022/03/30 11:07:15;;;;;;;21.80;8.80;;;;;24.08;96351.80;;;;111105;1247;41595;-64
2022/03/30 11:10:15;;;;;;;19.50;8.60;;;;;23.50;96354.00;;;;111109;1247;41256;-63
2022/03/30 11:13:03;;;;;;;17.20;8.70;;;;;22.98;96368.40;;;;111161;1247;41132;-67
2022/03/30 11:16:00;;;;;;;18.70;9.30;;;;;22.86;96351.80;;;;111157;1247;41205;-63
2022/03/30 11:18:31;;;;;;;17.50;8.50;;;;;22.82;96372.00;;;;111116;1248;42369;-64
2022/03/30 11:21:13;;;;;;;17.90;8.80;;;;;22.64;96353.80;;;;111063;1247;41581;-63
2022/03/30 11:24:07;;;;;;;14.30;7.80;;;;;23.14;96353.60;;;;111056;1247;41251;-63
2022/03/30 11:26:49;;;;;;;14.30;7.50;;;;;23.12;96346.20;;;;111143;1247;41372;-63
2022/03/30 11:29:47;;;;;;;13.90;7.20;;;;;23.66;96345.40;;;;111071;1248;41262;-63
2022/03/30 11:32:22;;;;;;;16.50;7.90;;;;;24.08;96339.60;;;;111139;1247;41617;-62
2022/03/30 11:34:59;;;;;;;15.50;8.00;;;;;23.66;96343.20;;;;111133;1247;41142;-64
2022/03/30 11:37:31;;;;;;;16.20;7.50;;;;;23.52;96345.80;;;;111055;1247;41158;-62
2022/03/30 11:40:12;;;;;;;15.70;7.50;;;;;23.38;96344.00;;;;111038;1247;41140;-63
2022/03/30 11:42:50;;;;;;;15.80;6.60;;;;;23.00;96340.20;;;;111065;1247;41153;-63
2022/03/30 11:45:22;;;;;;;15.40;7.10;;;;;23.16;96347.80;;;;110933;1248;41269;-62
2022/03/30 11:48:09;;;;;;;14.30;7.00;;;;;23.32;96338.60;;;;110957;1249;41663;-62
2022/03/30 11:50:41;;;;;;;17.20;6.90;;;;;23.44;96340.20;;;;110839;1250;41156;-66
2022/03/30 11:53:25;;;;;;;24.80;7.90;;;;;23.18;96343.40;;;;111054;1247;41151;-63
2022/03/30 11:56:00;;;;;;;15.40;7.10;;;;;22.74;96361.60;;;;111003;1250;41187;-63
2022/03/30 11:58:35;;;;;;;16.20;7.20;;;;;22.14;96350.20;;;;111052;1248;41143;-61
2022/03/30 12:01:10;;;;;;;17.00;7.50;;;;;22.06;96340.80;;;;110805;1247;41160;-63
2022/03/30 12:03:40;;;;;;;16.50;7.20;;;;;21.64;96339.80;;;;111139;1247;42268;-63
2022/03/30 12:06:11;;;;;;;15.20;6.90;;;;;21.50;96337.40;;;;110925;1249;41219;-63
2022/03/30 12:08:44;;;;;;;14.50;7.10;;;;;21.30;96327.40;;;;111085;1247;41191;-61
2022/03/30 12:11:16;;;;;;;16.00;7.30;;;;;21.20;96330.00;;;;111113;1246;41947;-63
2022/03/30 12:13:57;;;;;;;15.60;7.40;;;;;21.10;96335.20;;;;110979;1247;41146;-63
2022/03/30 12:16:32;;;;;;;19.10;8.20;;;;;21.04;96335.60;;;;110708;1248;41155;-65
2022/03/30 12:19:01;;;;;;;17.90;7.30;;;;;20.76;96337.00;;;;110699;1250;41589;-64
2022/03/30 12:21:38;;;;;;;15.70;7.70;;;;;20.60;96329.40;;;;111094;1247;41891;-63
2022/03/30 12:24:11;;;;;;;15.30;6.90;;;;;20.58;96327.00;;;;111060;1248;41288;-65
2022/03/30 12:26:55;;;;;;;16.30;7.90;;;;;20.50;96331.80;;;;110979;1247;41496;-64
2022/03/30 12:29:30;;;;;;;16.50;7.10;;;;;20.60;96322.00;;;;110927;1248;41272;-63